| time (UTC) | temp C | wind direction | speed KPH | gust KPH | rain 1hr cm | rain 24hr cm | rain mn cm | humidity % | barometer mb |
| 20260509211553 | 18 | 252 | 19.3 | 30.6 | 0.00 | 0.51 | 0.51 | 68 | 1008.2 |
| 20260509210059 | 17 | 238 | 19.3 | 33.8 | 0.00 | 0.51 | 0.51 | 68 | 1007.9 |
| 20260509204556 | 17 | 221 | 19.3 | 30.6 | 0.00 | 0.51 | 0.51 | 70 | 1008.2 |
| 20260509203105 | 17 | 233 | 17.7 | 25.7 | 0.00 | 0.51 | 0.51 | 71 | 1008.3 |
| 20260509201556 | 17 | 255 | 17.7 | 27.4 | 0.00 | 0.51 | 0.51 | 76 | 1008.5 |
| 20260509200056 | 17 | 207 | 14.5 | 30.6 | 0.00 | 0.51 | 0.51 | 76 | 1008.5 |
| 20260509194559 | 16 | 254 | 17.7 | 35.4 | 0.00 | 0.51 | 0.51 | 77 | 1008.8 |
| 20260509193055 | 16 | 230 | 20.9 | 32.2 | 0.00 | 0.51 | 0.51 | 77 | 1009.1 |
| 20260509191559 | 16 | 224 | 20.9 | 29.0 | 0.00 | 0.51 | 0.51 | 78 | 1009.4 |
| 20260509190057 | 16 | 232 | 14.5 | 27.4 | 0.00 | 0.51 | 0.51 | 82 | 1009.3 |
| 20260509184554 | 15 | 240 | 19.3 | 25.7 | 0.00 | 0.51 | 0.51 | 80 | 1009.7 |
| 20260509183100 | 15 | 205 | 16.1 | 25.7 | 0.00 | 0.51 | 0.51 | 82 | 1009.7 |
| 20260509181608 | 14 | 258 | 14.5 | 24.1 | 0.00 | 0.51 | 0.51 | 85 | 1009.7 |
| 20260509180114 | 13 | 245 | 12.9 | 22.5 | 0.00 | 0.51 | 0.51 | 86 | 1009.7 |
| 20260509174556 | 13 | 204 | 17.7 | 27.4 | 0.00 | 0.51 | 0.51 | 86 | 1009.6 |
| 20260509173108 | 13 | 225 | 16.1 | 22.5 | 0.00 | 0.51 | 0.51 | 87 | 1009.7 |
| 20260509171604 | 13 | 232 | 16.1 | 27.4 | 0.00 | 0.51 | 0.51 | 90 | 1009.5 |
| 20260509170055 | 13 | 243 | 14.5 | 24.1 | 0.00 | 0.51 | 0.51 | 91 | 1009.4 |
| 20260509164557 | 13 | 226 | 14.5 | 17.7 | 0.00 | 0.51 | 0.51 | 92 | 1009.4 |
| 20260509163055 | 12 | 231 | 11.3 | 22.5 | 0.03 | 0.51 | 0.51 | 93 | 1009.2 |
| 20260509161602 | 11 | 210 | 17.7 | 32.2 | 0.03 | 0.51 | 0.51 | 93 | 1009.1 |
| 20260509160100 | 11 | 205 | 16.1 | 27.4 | 0.05 | 0.51 | 0.51 | 94 | 1008.8 |
| 20260509154612 | 11 | 206 | 17.7 | 29.0 | 0.08 | 0.51 | 0.51 | 93 | 1008.9 |
| 20260509153111 | 11 | 219 | 17.7 | 24.1 | 0.05 | 0.48 | 0.48 | 94 | 1009.2 |
| 20260509151609 | 11 | 206 | 16.1 | 20.9 | 0.08 | 0.48 | 0.48 | 94 | 1009.3 |
| 20260509150100 | 11 | 212 | 16.1 | 27.4 | 0.08 | 0.46 | 0.46 | 94 | 1009.5 |
| 20260509144556 | 11 | 229 | 12.9 | 24.1 | 0.10 | 0.43 | 0.43 | 94 | 1009.5 |
| 20260509143108 | 11 | 218 | 14.5 | 22.5 | 0.10 | 0.43 | 0.43 | 94 | 1009.5 |
| 20260509141557 | 10 | 186 | 17.7 | 25.7 | 0.10 | 0.41 | 0.41 | 94 | 1009.5 |
| 20260509140057 | 10 | 198 | 17.7 | 27.4 | 0.10 | 0.38 | 0.38 | 94 | 1009.6 |
| 20260509134557 | 10 | 221 | 16.1 | 27.4 | 0.08 | 0.33 | 0.33 | 94 | 1009.7 |
| 20260509133108 | 10 | 206 | 14.5 | 24.1 | 0.08 | 0.33 | 0.33 | 93 | 1009.8 |
| 20260509131605 | 10 | 223 | 17.7 | 27.4 | 0.08 | 0.30 | 0.30 | 94 | 1009.8 |
| 20260509130114 | 10 | 212 | 12.9 | 20.9 | 0.05 | 0.28 | 0.28 | 94 | 1009.9 |
| 20260509124558 | 10 | 212 | 12.9 | 22.5 | 0.05 | 0.25 | 0.25 | 94 | 1009.9 |
| 20260509123056 | 10 | 223 | 12.9 | 20.9 | 0.10 | 0.25 | 0.25 | 94 | 1009.8 |
| 20260509121556 | 10 | 193 | 11.3 | 17.7 | 0.10 | 0.23 | 0.23 | 94 | 1010.0 |
| 20260509120059 | 10 | 216 | 11.3 | 19.3 | 0.10 | 0.23 | 0.23 | 93 | 1009.9 |
| 20260509114555 | 10 | 198 | 12.9 | 19.3 | 0.13 | 0.20 | 0.20 | 93 | 1009.9 |
| 20260509113058 | 10 | 204 | 14.5 | 20.9 | 0.10 | 0.15 | 0.15 | 93 | 1009.8 |
| 20260509111559 | 10 | 195 | 14.5 | 22.5 | 0.08 | 0.13 | 0.13 | 92 | 1009.7 |
| 20260509110055 | 10 | 204 | 14.5 | 22.5 | 0.08 | 0.13 | 0.13 | 92 | 1009.8 |
| 20260509104610 | 10 | 207 | 14.5 | 25.7 | 0.05 | 0.08 | 0.08 | 92 | 1009.7 |
| 20260509103110 | 10 | 188 | 16.1 | 22.5 | 0.03 | 0.05 | 0.05 | 91 | 1009.8 |
| 20260509101558 | 10 | 202 | 16.1 | 24.1 | 0.03 | 0.05 | 0.05 | 91 | 1009.7 |
| 20260509100055 | 10 | 219 | 17.7 | 29.0 | 0.05 | 0.05 | 0.05 | 91 | 1009.9 |
| 20260509094558 | 10 | 223 | 16.1 | 27.4 | 0.03 | 0.03 | 0.03 | 91 | 1009.9 |
| 20260509093101 | 10 | 207 | 19.3 | 27.4 | 0.03 | 0.03 | 0.03 | 92 | 1010.2 |
| 20260509091555 | 10 | 208 | 17.7 | 25.7 | 0.03 | 0.03 | 0.03 | 94 | 1010.2 |
| 20260509090059 | 8 | 228 | 8.0 | 11.3 | 0.00 | 0.00 | 0.00 | 94 | 1010.2 |
| 20260509084607 | 8 | 199 | 1.6 | 4.8 | 0.00 | 0.00 | 0.00 | 95 | 1010.1 |
| 20260509083103 | 8 | 0 | 0.0 | 8.0 | 0.00 | 0.00 | 0.00 | 94 | 1009.8 |
| 20260509081608 | 8 | 309 | 0.0 | 4.8 | 0.00 | 0.00 | 0.00 | 94 | 1009.6 |
| 20260509074608 | 8 | 0 | 0.0 | 1.6 | 0.00 | 0.00 | 0.00 | 94 | 1009.2 |
| 20260509073111 | 8 | 0 | 0.0 | 3.2 | 0.00 | 0.00 | 0.00 | 94 | 1009.1 |
| 20260509071611 | 8 | 0 | 0.0 | 3.2 | 0.00 | 0.00 | 0.00 | 93 | 1009.3 |
| 20260509070107 | 8 | 20 | 3.2 | 6.4 | 0.00 | 0.00 | 0.00 | 93 | 1009.3 |
| 20260509064612 | 8 | 1 | 4.8 | 8.0 | 0.00 | 0.00 | 0.00 | 92 | 1009.3 |
| 20260509063113 | 8 | 360 | 3.2 | 6.4 | 0.00 | 0.00 | 0.00 | 92 | 1009.5 |
| 20260509061619 | 9 | 57 | 0.0 | 4.8 | 0.00 | 0.00 | 0.00 | 92 | 1009.9 |
| 20260509060114 | 8 | 0 | 0.0 | 3.2 | 0.00 | 0.00 | 0.00 | 93 | 1010.3 |
| 20260509054600 | 8 | 0 | 0.0 | 0.0 | 0.00 | 0.00 | 0.00 | 93 | 1010.2 |
| 20260509053107 | 8 | 0 | 0.0 | 3.2 | 0.00 | 0.00 | 0.00 | 93 | 1010.6 |
| 20260509051601 | 8 | 0 | 0.0 | 3.2 | 0.00 | 0.00 | 0.00 | 93 | 1010.6 |
| 20260509050057 | 8 | 67 | 0.0 | 3.2 | 0.00 | 0.00 | 0.00 | 92 | 1010.7 |
| 20260509044556 | 8 | 0 | 0.0 | 1.6 | 0.00 | 0.00 | 0.00 | 93 | 1010.9 |
| 20260509043057 | 8 | 0 | 0.0 | 3.2 | 0.00 | 0.00 | 0.00 | 92 | 1011.1 |
| 20260509041556 | 9 | 0 | 0.0 | 3.2 | 0.00 | 0.00 | 0.00 | 92 | 1011.3 |
| 20260509040055 | 9 | 0 | 0.0 | 4.8 | 0.00 | 0.00 | 0.00 | 92 | 1011.5 |
| 20260509034556 | 9 | 0 | 1.6 | 3.2 | 0.00 | 0.00 | 0.00 | 91 | 1011.8 |
| 20260509033057 | 9 | 57 | 1.6 | 6.4 | 0.00 | 0.00 | 0.00 | 90 | 1012.1 |
| 20260509031559 | 10 | 84 | 1.6 | 6.4 | 0.00 | 0.00 | 0.00 | 89 | 1012.3 |
| 20260509030059 | 10 | 39 | 4.8 | 11.3 | 0.00 | 0.00 | 0.00 | 89 | 1012.3 |
| 20260509024601 | 10 | 28 | 4.8 | 8.0 | 0.00 | 0.00 | 0.00 | 89 | 1012.3 |
| 20260509023100 | 10 | 360 | 8.0 | 9.7 | 0.00 | 0.00 | 0.00 | 88 | 1012.1 |
| 20260509021555 | 10 | 18 | 3.2 | 8.0 | 0.00 | 0.00 | 0.00 | 87 | 1012.1 |
| 20260509020059 | 10 | 9 | 4.8 | 9.7 | 0.00 | 0.00 | 0.00 | 86 | 1011.7 |
| 20260509014557 | 10 | 25 | 0.0 | 6.4 | 0.00 | 0.00 | 0.00 | 84 | 1011.6 |
| 20260509013057 | 10 | 6 | 0.0 | 4.8 | 0.00 | 0.00 | 0.00 | 84 | 1011.3 |
| 20260509011557 | 10 | 64 | 1.6 | 4.8 | 0.00 | 0.00 | 0.00 | 83 | 1011.0 |
| 20260509010055 | 10 | 32 | 3.2 | 6.4 | 0.00 | 0.00 | 0.00 | 83 | 1010.9 |
| 20260509004606 | 10 | 101 | 3.2 | 6.4 | 0.00 | 0.00 | 0.00 | 84 | 1010.9 |
| 20260509003058 | 10 | 92 | 3.2 | 6.4 | 0.00 | 0.00 | 0.00 | 85 | 1011.0 |
| 20260509001556 | 10 | 84 | 3.2 | 4.8 | 0.00 | 0.00 | 0.00 | 84 | 1011.0 |
| 20260509000058 | 11 | 0 | 0.0 | 4.8 | 0.00 | 0.00 | 0.00 | 84 | 1011.0 |
| 20260508234556 | 11 | 0 | 0.0 | 4.8 | 0.00 | 0.00 | 0.00 | 83 | 1011.1 |
| 20260508233055 | 11 | 89 | 1.6 | 4.8 | 0.00 | 0.00 | 0.00 | 83 | 1011.0 |
| 20260508231555 | 11 | 65 | 0.0 | 4.8 | 0.00 | 0.00 | 0.00 | 82 | 1011.0 |
| 20260508230100 | 11 | 29 | 3.2 | 4.8 | 0.00 | 0.00 | 0.00 | 81 | 1011.2 |
| 20260508224558 | 12 | 57 | 3.2 | 4.8 | 0.00 | 0.00 | 0.00 | 79 | 1011.2 |
| 20260508223054 | 12 | 129 | 3.2 | 4.8 | 0.00 | 0.00 | 0.00 | 74 | 1011.0 |
| 20260508221559 | 13 | 0 | 0.0 | 3.2 | 0.00 | 0.00 | 0.00 | 68 | 1011.1 |
| 20260508220055 | 13 | 221 | 1.6 | 8.0 | 0.00 | 0.00 | 0.00 | 70 | 1011.1 |
| 20260508214554 | 13 | 217 | 4.8 | 9.7 | 0.00 | 0.00 | 0.00 | 69 | 1011.1 |
| 20260508213058 | 13 | 179 | 3.2 | 6.4 | 0.00 | 0.00 | 0.00 | 69 | 1011.3 |